Time;durP1;ratioP1;P1;durP2;ratioP2;P2;SDS_P1;SDS_P2;PMS_P1;PMS_P2;Temp;Humidity;BMP_temperature;BMP_pressure;BME280_temperature;BME280_humidity;BME280_pressure;Samples;Min_cycle;Max_cycle;Signal;HPM_P1;HPM_P2
2023/02/03 00:01:10;;;;;;;3.38;3.08;;;;;;;;;;5095433;28;20258;-87
2023/02/03 00:03:37;;;;;;;4.00;3.70;;;;;;;;;;5085016;22;20229;-85
2023/02/03 00:06:05;;;;;;;3.33;3.05;;;;;;;;;;5049563;28;20193;-85
2023/02/03 00:08:35;;;;;;;3.35;3.13;;;;;;;;;;5073783;28;20205;-85
2023/02/03 00:47:06;;;;;;;7.60;5.05;;;;;;;;;;5070052;28;20262;-88
2023/02/03 00:49:33;;;;;;;4.57;4.18;;;;;;;;;;5073474;28;20654;-88
2023/02/03 00:52:01;;;;;;;5.85;3.70;;;;;;;;;;5073061;28;20292;-88
2023/02/03 00:54:28;;;;;;;3.00;2.80;;;;;;;;;;5075182;28;20251;-89
2023/02/03 00:56:56;;;;;;;2.97;2.70;;;;;;;;;;5075150;28;20267;-88
2023/02/03 00:59:23;;;;;;;3.92;3.63;;;;;;;;;;5074963;28;20649;-88
2023/02/03 01:01:51;;;;;;;4.20;3.80;;;;;;;;;;5075218;28;20568;-88
2023/02/03 01:04:20;;;;;;;3.33;3.03;;;;;;;;;;5074863;28;20225;-88
2023/02/03 01:06:47;;;;;;;2.83;2.63;;;;;;;;;;5075034;28;20288;-88
2023/02/03 01:09:15;;;;;;;2.45;2.30;;;;;;;;;;5074560;28;20591;-88
2023/02/03 01:11:42;;;;;;;2.40;2.20;;;;;;;;;;5073965;28;20436;-88
2023/02/03 01:14:10;;;;;;;2.50;2.30;;;;;;;;;;5073791;28;20235;-88
2023/02/03 01:16:38;;;;;;;4.85;2.97;;;;;;;;;;5074117;28;20235;-88
2023/02/03 01:19:06;;;;;;;3.17;2.97;;;;;;;;;;5072744;28;20653;-88
2023/02/03 01:21:36;;;;;;;2.42;2.22;;;;;;;;;;5073085;28;20224;-88
2023/02/03 01:24:03;;;;;;;3.60;3.30;;;;;;;;;;5072995;28;20221;-88
2023/02/03 01:26:31;;;;;;;3.58;3.28;;;;;;;;;;5073000;28;20292;-88
2023/02/03 01:29:00;;;;;;;4.20;3.80;;;;;;;;;;5073245;28;20243;-88
2023/02/03 01:31:29;;;;;;;3.25;3.05;;;;;;;;;;5074186;28;20622;-88
2023/02/03 01:33:57;;;;;;;3.10;2.90;;;;;;;;;;5070799;28;20222;-88
2023/02/03 01:36:28;;;;;;;2.45;2.25;;;;;;;;;;5054272;28;20205;-88
2023/02/03 01:38:57;;;;;;;4.20;3.70;;;;;;;;;;5054970;28;20759;-88
2023/02/03 01:41:27;;;;;;;5.05;3.47;;;;;;;;;;5054912;28;20308;-87
2023/02/03 01:43:56;;;;;;;2.85;2.65;;;;;;;;;;5052797;28;20225;-87
2023/02/03 01:46:30;;;;;;;3.95;3.65;;;;;;;;;;5052465;28;20628;-87
2023/02/03 01:49:05;;;;;;;3.53;3.13;;;;;;;;;;5052683;28;20186;-87
2023/02/03 01:51:33;;;;;;;2.85;2.65;;;;;;;;;;5051891;28;20201;-87
2023/02/03 01:54:02;;;;;;;4.22;3.83;;;;;;;;;;5053259;28;20245;-87
2023/02/03 01:56:34;;;;;;;3.90;3.60;;;;;;;;;;5054405;28;20289;-87
2023/02/03 01:59:02;;;;;;;3.08;2.88;;;;;;;;;;5053115;28;20222;-87
2023/02/03 02:01:31;;;;;;;4.13;3.72;;;;;;;;;;5053637;28;20284;-87
2023/02/03 02:04:01;;;;;;;5.45;4.00;;;;;;;;;;5053632;28;20316;-87
2023/02/03 02:06:29;;;;;;;3.90;3.42;;;;;;;;;;5054060;28;20276;-87
2023/02/03 02:08:59;;;;;;;3.55;3.25;;;;;;;;;;5053010;28;20194;-87
2023/02/03 02:11:29;;;;;;;4.43;4.03;;;;;;;;;;5053601;28;20197;-87
2023/02/03 02:13:59;;;;;;;4.30;3.80;;;;;;;;;;5053199;28;20304;-86
2023/02/03 02:16:38;;;;;;;5.57;4.32;;;;;;;;;;5053719;28;20237;-87
2023/02/03 02:19:45;;;;;;;3.53;3.22;;;;;;;;;;5053022;28;20209;-87
2023/02/03 02:22:17;;;;;;;3.30;3.00;;;;;;;;;;5052995;28;20273;-87
2023/02/03 02:25:25;;;;;;;2.95;2.75;;;;;;;;;;5053044;28;20186;-87
2023/02/03 02:28:40;;;;;;;5.75;4.50;;;;;;;;;;5019307;28;20737;-87
2023/02/03 02:31:42;;;;;;;4.22;3.67;;;;;;;;;;5052944;28;20584;-87
2023/02/03 02:34:17;;;;;;;3.40;3.10;;;;;;;;;;5032853;28;20221;-87
2023/02/03 02:36:55;;;;;;;4.32;3.92;;;;;;;;;;5052935;28;20189;-86
2023/02/03 02:39:34;;;;;;;4.80;4.40;;;;;;;;;;5052607;28;20312;-87
2023/02/03 02:42:06;;;;;;;3.95;3.55;;;;;;;;;;5052602;28;20205;-87
2023/02/03 02:44:39;;;;;;;4.03;3.72;;;;;;;;;;5052805;28;20201;-87
2023/02/03 02:47:15;;;;;;;4.45;4.07;;;;;;;;;;5052108;28;20225;-87
2023/02/03 02:49:47;;;;;;;5.20;4.70;;;;;;;;;;5052344;28;20553;-87
2023/02/03 02:52:16;;;;;;;5.53;5.03;;;;;;;;;;5052659;28;20637;-87
2023/02/03 02:54:48;;;;;;;4.25;3.95;;;;;;;;;;5052341;28;20638;-87
2023/02/03 02:57:17;;;;;;;5.57;4.40;;;;;;;;;;5053065;28;20182;-87
2023/02/03 02:59:46;;;;;;;4.05;3.75;;;;;;;;;;5052503;28;20288;-87
2023/02/03 03:02:16;;;;;;;3.58;3.08;;;;;;;;;;5052702;28;20202;-87
2023/02/03 03:04:44;;;;;;;4.40;4.05;;;;;;;;;;5062572;28;20296;-87
2023/02/03 03:07:15;;;;;;;3.53;3.22;;;;;;;;;;5072368;28;20228;-87
2023/02/03 03:09:46;;;;;;;3.88;3.55;;;;;;;;;;5071972;28;20197;-87
2023/02/03 03:12:16;;;;;;;5.22;4.72;;;;;;;;;;5072633;28;20971;-87
2023/02/03 03:14:49;;;;;;;4.47;4.07;;;;;;;;;;5073118;28;20196;-86
2023/02/03 03:17:24;;;;;;;4.22;3.53;;;;;;;;;;5073122;28;20292;-87
2023/02/03 03:19:55;;;;;;;6.25;4.40;;;;;;;;;;5072372;28;20218;-87
2023/02/03 03:22:29;;;;;;;3.42;3.13;;;;;;;;;;5073133;28;20280;-87
2023/02/03 03:25:03;;;;;;;4.53;3.40;;;;;;;;;;5073059;28;20239;-86
2023/02/03 03:27:34;;;;;;;3.58;3.03;;;;;;;;;;5073130;28;20546;-86
2023/02/03 03:30:05;;;;;;;4.00;3.60;;;;;;;;;;5072052;28;20699;-86
2023/02/03 03:32:34;;;;;;;4.32;3.85;;;;;;;;;;5073653;28;20312;-86
2023/02/03 03:35:03;;;;;;;5.35;3.60;;;;;;;;;;5059889;28;20213;-87
2023/02/03 03:37:35;;;;;;;3.72;3.40;;;;;;;;;;5051941;28;20205;-87
2023/02/03 03:40:18;;;;;;;5.35;4.28;;;;;;;;;;5052006;28;20221;-87
2023/02/03 03:42:50;;;;;;;3.53;3.22;;;;;;;;;;5052924;28;20228;-87
2023/02/03 03:45:22;;;;;;;3.90;3.60;;;;;;;;;;5052359;28;20209;-87
2023/02/03 03:47:56;;;;;;;2.33;2.22;;;;;;;;;;5052263;28;20204;-87
2023/02/03 03:50:28;;;;;;;3.00;2.80;;;;;;;;;;5052480;28;20623;-88
2023/02/03 03:52:57;;;;;;;2.92;2.72;;;;;;;;;;5052615;28;20221;-87
2023/02/03 03:55:25;;;;;;;4.40;3.08;;;;;;;;;;5052631;28;20194;-87
2023/02/03 03:57:56;;;;;;;2.75;2.30;;;;;;;;;;5051924;28;20297;-87
2023/02/03 04:00:26;;;;;;;2.90;2.70;;;;;;;;;;5051952;28;20197;-87
2023/02/03 04:02:57;;;;;;;4.03;3.08;;;;;;;;;;5052048;28;20618;-87
2023/02/03 04:05:25;;;;;;;3.03;2.72;;;;;;;;;;5052459;28;20182;-87
2023/02/03 04:07:52;;;;;;;3.78;3.47;;;;;;;;;;5054613;28;20558;-87
2023/02/03 04:10:29;;;;;;;5.10;3.70;;;;;;;;;;5055628;28;20193;-87
2023/02/03 04:12:56;;;;;;;4.20;3.70;;;;;;;;;;5056230;28;20256;-87
2023/02/03 04:15:24;;;;;;;6.15;4.78;;;;;;;;;;5056826;28;20202;-87
2023/02/03 04:17:51;;;;;;;4.50;4.10;;;;;;;;;;5056385;28;20200;-87
2023/02/03 04:20:20;;;;;;;6.00;4.53;;;;;;;;;;5056363;28;20253;-86
2023/02/03 04:22:48;;;;;;;5.10;4.60;;;;;;;;;;5056196;28;20588;-87
2023/02/03 04:25:16;;;;;;;4.15;3.70;;;;;;;;;;5056183;28;20241;-87
2023/02/03 04:27:43;;;;;;;3.95;2.80;;;;;;;;;;5056382;28;20285;-87
2023/02/03 04:30:12;;;;;;;4.60;4.30;;;;;;;;;;5054782;28;20238;-87
2023/02/03 04:32:40;;;;;;;3.67;3.28;;;;;;;;;;5055849;28;20214;-87
2023/02/03 04:35:08;;;;;;;7.72;3.88;;;;;;;;;;5055743;28;20284;-87
2023/02/03 04:37:37;;;;;;;4.32;3.63;;;;;;;;;;5054523;28;20285;-87
2023/02/03 04:40:06;;;;;;;4.30;3.08;;;;;;;;;;5055662;28;20317;-87
2023/02/03 04:42:36;;;;;;;3.40;3.20;;;;;;;;;;5056205;28;20308;-87
2023/02/03 04:45:04;;;;;;;2.83;2.60;;;;;;;;;;5056043;28;20210;-87
2023/02/03 04:47:31;;;;;;;3.67;3.38;;;;;;;;;;5056090;28;20228;-87
2023/02/03 04:49:59;;;;;;;3.72;3.30;;;;;;;;;;5055430;28;20280;-87
2023/02/03 04:52:26;;;;;;;2.80;2.60;;;;;;;;;;5056077;28;20256;-87
2023/02/03 04:54:55;;;;;;;2.40;2.20;;;;;;;;;;5055513;28;20209;-86
2023/02/03 04:57:23;;;;;;;2.17;2.05;;;;;;;;;;5055657;28;20322;-87
2023/02/03 04:59:50;;;;;;;3.30;2.97;;;;;;;;;;5054893;28;20636;-87
2023/02/03 05:02:18;;;;;;;5.22;3.08;;;;;;;;;;5055286;28;20285;-87
2023/02/03 05:04:45;;;;;;;4.30;3.00;;;;;;;;;;5055143;28;20229;-87
2023/02/03 05:07:12;;;;;;;3.72;3.42;;;;;;;;;;5055387;28;20212;-87
2023/02/03 05:09:40;;;;;;;3.15;2.90;;;;;;;;;;5054576;28;20225;-86
2023/02/03 05:12:09;;;;;;;2.63;2.42;;;;;;;;;;5055711;28;20281;-87
2023/02/03 05:14:36;;;;;;;2.80;2.60;;;;;;;;;;5055602;28;20636;-87
2023/02/03 05:17:04;;;;;;;3.20;2.75;;;;;;;;;;5055451;28;20655;-87
2023/02/03 05:19:31;;;;;;;2.15;2.00;;;;;;;;;;5055008;28;20309;-86
2023/02/03 05:21:59;;;;;;;3.30;2.97;;;;;;;;;;5055141;28;20233;-87
2023/02/03 05:24:26;;;;;;;3.75;2.97;;;;;;;;;;5055146;28;20271;-87
2023/02/03 05:26:54;;;;;;;3.47;2.90;;;;;;;;;;5055240;28;20240;-87
2023/02/03 05:29:23;;;;;;;3.53;3.22;;;;;;;;;;5054537;28;20645;-86
2023/02/03 05:31:50;;;;;;;5.13;3.03;;;;;;;;;;5055089;28;20280;-86
2023/02/03 05:34:18;;;;;;;2.25;2.10;;;;;;;;;;5054863;28;20308;-87
2023/02/03 05:36:45;;;;;;;1.90;1.80;;;;;;;;;;5056147;28;20236;-85
2023/02/03 05:39:13;;;;;;;2.85;2.42;;;;;;;;;;5053572;28;20235;-86
2023/02/03 05:41:51;;;;;;;2.83;2.63;;;;;;;;;;5053872;28;20204;-85
2023/02/03 05:44:19;;;;;;;2.97;2.70;;;;;;;;;;5054144;28;20244;-86
2023/02/03 05:46:48;;;;;;;2.55;2.35;;;;;;;;;;5053416;28;20220;-86
2023/02/03 05:49:16;;;;;;;3.83;3.30;;;;;;;;;;5052890;28;20693;-86
2023/02/03 05:51:43;;;;;;;3.15;2.85;;;;;;;;;;5053202;28;20201;-85
2023/02/03 05:54:11;;;;;;;4.70;3.83;;;;;;;;;;5053308;28;20656;-85
2023/02/03 05:56:39;;;;;;;3.22;2.92;;;;;;;;;;5053529;28;20285;-86
2023/02/03 05:59:06;;;;;;;3.30;3.03;;;;;;;;;;5053660;28;20201;-85
2023/02/03 06:01:35;;;;;;;4.07;2.75;;;;;;;;;;5053398;28;20680;-85
2023/02/03 06:04:04;;;;;;;3.80;3.22;;;;;;;;;;5053478;28;20217;-84
2023/02/03 06:06:33;;;;;;;3.92;3.45;;;;;;;;;;5053169;28;20193;-85
2023/02/03 06:09:01;;;;;;;3.72;2.97;;;;;;;;;;5053106;28;20224;-84
2023/02/03 06:11:28;;;;;;;5.13;3.20;;;;;;;;;;5053171;28;20204;-86
2023/02/03 06:13:57;;;;;;;4.18;3.10;;;;;;;;;;5053162;28;20225;-86
2023/02/03 06:16:25;;;;;;;4.63;4.22;;;;;;;;;;5053133;28;20252;-85
2023/02/03 06:18:52;;;;;;;3.42;3.22;;;;;;;;;;5052821;28;20708;-85
2023/02/03 06:21:22;;;;;;;2.50;2.30;;;;;;;;;;5052918;28;20224;-86
2023/02/03 06:23:49;;;;;;;3.08;2.53;;;;;;;;;;5052863;28;20320;-86
2023/02/03 06:26:17;;;;;;;3.38;2.83;;;;;;;;;;5052435;28;20641;-85
2023/02/03 06:28:44;;;;;;;3.65;3.35;;;;;;;;;;5051777;28;20311;-85
2023/02/03 06:31:12;;;;;;;3.83;3.20;;;;;;;;;;5051867;28;20577;-85
2023/02/03 06:33:39;;;;;;;2.67;2.47;;;;;;;;;;5053272;28;20229;-86
2023/02/03 06:36:07;;;;;;;3.38;3.08;;;;;;;;;;5071718;28;20296;-86
2023/02/03 06:38:36;;;;;;;3.45;1.98;;;;;;;;;;5072090;28;20284;-85
2023/02/03 06:41:04;;;;;;;4.53;3.67;;;;;;;;;;5072503;28;20316;-85
2023/02/03 06:43:31;;;;;;;3.35;3.00;;;;;;;;;;5072347;28;20256;-86
2023/02/03 06:45:59;;;;;;;3.05;2.28;;;;;;;;;;5072274;28;20291;-84
2023/02/03 06:48:26;;;;;;;3.63;3.33;;;;;;;;;;5071065;28;20295;-86
2023/02/03 06:50:54;;;;;;;3.63;2.55;;;;;;;;;;5072253;28;20662;-84
2023/02/03 06:53:22;;;;;;;2.85;2.65;;;;;;;;;;5072552;28;20274;-85
2023/02/03 06:55:50;;;;;;;1.88;1.77;;;;;;;;;;5072024;28;20671;-85
2023/02/03 06:58:18;;;;;;;2.40;2.20;;;;;;;;;;5072161;28;20575;-87
2023/02/03 07:00:45;;;;;;;2.72;2.53;;;;;;;;;;5063322;28;20312;-85
2023/02/03 07:03:13;;;;;;;2.75;2.42;;;;;;;;;;5068699;28;20304;-86
2023/02/03 07:05:40;;;;;;;2.88;2.08;;;;;;;;;;5074148;28;20296;-85
2023/02/03 07:08:08;;;;;;;3.80;2.10;;;;;;;;;;5072297;28;20201;-87
2023/02/03 07:10:35;;;;;;;2.92;2.28;;;;;;;;;;5071890;28;20288;-87
2023/02/03 07:13:05;;;;;;;4.43;2.80;;;;;;;;;;5072484;28;20255;-84
2023/02/03 07:15:33;;;;;;;2.30;2.10;;;;;;;;;;5069178;28;20207;-87
2023/02/03 07:18:00;;;;;;;4.10;2.38;;;;;;;;;;5075489;28;20279;-86
2023/02/03 07:20:28;;;;;;;2.60;2.35;;;;;;;;;;5091571;28;20307;-86
2023/02/03 07:22:57;;;;;;;2.40;2.05;;;;;;;;;;5092719;28;20224;-87
2023/02/03 07:25:25;;;;;;;2.92;2.55;;;;;;;;;;5091869;28;20196;-87
2023/02/03 07:27:53;;;;;;;3.92;2.88;;;;;;;;;;5091746;28;20646;-86
2023/02/03 07:30:22;;;;;;;3.35;3.05;;;;;;;;;;5091667;28;20216;-86
2023/02/03 07:32:50;;;;;;;2.90;2.67;;;;;;;;;;5091800;28;20230;-86
2023/02/03 07:35:18;;;;;;;3.03;2.33;;;;;;;;;;5091770;28;20210;-87
2023/02/03 07:37:46;;;;;;;2.97;2.78;;;;;;;;;;5092394;28;20377;-87
2023/02/03 07:40:15;;;;;;;2.80;2.60;;;;;;;;;;5091487;28;20292;-86
2023/02/03 07:42:43;;;;;;;3.25;2.80;;;;;;;;;;5093736;28;20227;-86
2023/02/03 07:45:11;;;;;;;2.95;2.67;;;;;;;;;;5096019;28;20287;-87
2023/02/03 07:47:41;;;;;;;2.40;2.30;;;;;;;;;;5096490;28;20283;-86
2023/02/03 07:50:09;;;;;;;4.55;2.80;;;;;;;;;;5095551;28;20925;-88
2023/02/03 07:52:37;;;;;;;2.63;2.40;;;;;;;;;;5095950;28;20303;-86
2023/02/03 07:55:05;;;;;;;2.47;2.28;;;;;;;;;;5096343;28;20299;-85
2023/02/03 07:57:33;;;;;;;3.22;2.92;;;;;;;;;;5096211;28;20200;-85
2023/02/03 08:00:00;;;;;;;2.05;1.95;;;;;;;;;;5095446;28;20292;-87
2023/02/03 08:02:28;;;;;;;2.72;2.50;;;;;;;;;;5095786;28;20263;-85
2023/02/03 08:04:57;;;;;;;2.65;2.08;;;;;;;;;;5084476;28;20248;-86
2023/02/03 08:07:24;;;;;;;2.45;2.22;;;;;;;;;;5075255;28;20205;-87
2023/02/03 08:09:52;;;;;;;2.70;2.13;;;;;;;;;;5074589;28;20291;-86
2023/02/03 08:12:19;;;;;;;1.88;1.77;;;;;;;;;;5075599;28;20961;-86
2023/02/03 08:14:47;;;;;;;2.10;1.90;;;;;;;;;;5075539;28;20597;-85
2023/02/03 08:17:14;;;;;;;2.13;2.03;;;;;;;;;;5074771;28;20232;-87
2023/02/03 08:19:42;;;;;;;2.00;1.90;;;;;;;;;;5074212;28;20239;-88
2023/02/03 08:22:14;;;;;;;3.15;1.63;;;;;;;;;;5074629;28;20225;-87
2023/02/03 08:24:44;;;;;;;2.08;1.88;;;;;;;;;;5074830;28;20276;-86
2023/02/03 08:27:12;;;;;;;1.45;1.35;;;;;;;;;;5075237;28;20205;-86
2023/02/03 08:29:40;;;;;;;1.67;1.55;;;;;;;;;;5077025;28;20205;-88
2023/02/03 08:32:10;;;;;;;1.85;1.75;;;;;;;;;;5077473;28;20270;-86
2023/02/03 08:34:38;;;;;;;1.50;1.40;;;;;;;;;;5078325;28;20289;-88
2023/02/03 08:37:05;;;;;;;4.10;2.15;;;;;;;;;;5077246;28;20240;-87
2023/02/03 08:39:35;;;;;;;2.42;2.22;;;;;;;;;;5077521;28;20260;-87
2023/02/03 08:42:03;;;;;;;2.33;1.60;;;;;;;;;;5077635;28;20268;-86
2023/02/03 08:44:31;;;;;;;1.35;1.35;;;;;;;;;;5077613;28;20223;-86
2023/02/03 08:47:00;;;;;;;2.05;1.95;;;;;;;;;;5077855;28;20367;-86
2023/02/03 08:49:30;;;;;;;1.98;1.83;;;;;;;;;;5075362;28;20204;-87
2023/02/03 08:51:58;;;;;;;1.50;1.40;;;;;;;;;;5076125;28;20197;-87
2023/02/03 08:54:26;;;;;;;1.83;1.73;;;;;;;;;;5076889;28;20339;-87
2023/02/03 08:56:55;;;;;;;3.03;1.50;;;;;;;;;;5076652;28;20338;-87
2023/02/03 08:59:23;;;;;;;1.67;1.50;;;;;;;;;;5077105;28;20264;-88
2023/02/03 09:01:51;;;;;;;1.30;1.30;;;;;;;;;;5077299;28;20308;-87
2023/02/03 09:04:23;;;;;;;1.20;1.20;;;;;;;;;;5078031;28;20735;-86
2023/02/03 09:06:53;;;;;;;1.40;1.30;;;;;;;;;;5076840;28;20232;-87
2023/02/03 09:09:21;;;;;;;1.40;1.30;;;;;;;;;;5062212;28;20214;-86
2023/02/03 09:11:48;;;;;;;1.10;1.10;;;;;;;;;;5057182;28;20225;-88
2023/02/03 09:14:17;;;;;;;1.17;1.15;;;;;;;;;;5057746;28;20257;-89
2023/02/03 09:16:45;;;;;;;0.98;0.98;;;;;;;;;;5057310;28;20232;-89
2023/02/03 09:19:13;;;;;;;1.00;1.00;;;;;;;;;;5056672;28;20229;-87
2023/02/03 09:21:41;;;;;;;1.00;1.00;;;;;;;;;;5056970;28;20261;-87
2023/02/03 09:24:09;;;;;;;3.55;1.60;;;;;;;;;;5057407;28;20249;-87
2023/02/03 09:26:36;;;;;;;1.00;1.00;;;;;;;;;;5057978;28;20280;-88
2023/02/03 09:29:04;;;;;;;1.30;1.20;;;;;;;;;;5058831;28;20289;-88
2023/02/03 09:31:33;;;;;;;1.50;1.40;;;;;;;;;;5058950;28;20201;-89
2023/02/03 09:34:01;;;;;;;1.20;1.20;;;;;;;;;;5058102;28;20260;-88
2023/02/03 09:36:28;;;;;;;1.63;1.15;;;;;;;;;;5057849;28;20196;-86
2023/02/03 09:38:57;;;;;;;2.17;1.60;;;;;;;;;;5056745;28;20269;-87
2023/02/03 09:41:50;;;;;;;1.70;1.60;;;;;;;;;;5057005;28;20292;-86
2023/02/03 09:44:23;;;;;;;1.98;1.45;;;;;;;;;;5056008;28;20267;-88
2023/02/03 09:46:55;;;;;;;1.48;1.38;;;;;;;;;;5057400;28;20292;-87
2023/02/03 09:49:27;;;;;;;1.20;1.20;;;;;;;;;;5057515;28;20288;-87
2023/02/03 09:51:58;;;;;;;1.40;1.30;;;;;;;;;;5056574;28;20189;-87
2023/02/03 09:54:42;;;;;;;1.55;1.45;;;;;;;;;;5057428;28;20213;-86
2023/02/03 09:57:16;;;;;;;1.63;1.52;;;;;;;;;;5057811;28;20213;-87
2023/02/03 09:59:44;;;;;;;1.73;1.63;;;;;;;;;;5057081;28;20205;-87
2023/02/03 10:02:31;;;;;;;1.83;1.73;;;;;;;;;;5057612;28;20236;-87
2023/02/03 10:05:04;;;;;;;2.05;1.85;;;;;;;;;;5069363;28;20276;-88
2023/02/03 10:07:40;;;;;;;1.58;1.45;;;;;;;;;;5076072;28;20292;-87
2023/02/03 10:10:14;;;;;;;1.42;1.33;;;;;;;;;;5075968;28;20966;-88
2023/02/03 10:13:01;;;;;;;1.55;1.45;;;;;;;;;;5075464;28;20251;-85
2023/02/03 10:16:03;;;;;;;1.60;1.50;;;;;;;;;;5076038;28;20240;-88
2023/02/03 10:18:36;;;;;;;1.45;1.35;;;;;;;;;;5076085;28;20275;-87
2023/02/03 10:21:10;;;;;;;1.60;1.50;;;;;;;;;;5076467;28;20231;-86
2023/02/03 10:23:40;;;;;;;1.80;1.70;;;;;;;;;;5074623;28;20235;-88
2023/02/03 10:26:12;;;;;;;1.73;1.60;;;;;;;;;;5075542;28;20811;-88
2023/02/03 10:28:45;;;;;;;1.42;1.00;;;;;;;;;;5074623;28;20273;-87
2023/02/03 10:31:19;;;;;;;2.15;2.05;;;;;;;;;;5075076;28;20213;-86
2023/02/03 10:33:48;;;;;;;1.38;1.30;;;;;;;;;;5074106;28;20274;-88
2023/02/03 10:36:20;;;;;;;2.33;2.13;;;;;;;;;;5073993;28;20652;-87
2023/02/03 10:38:56;;;;;;;1.90;1.80;;;;;;;;;;5074589;28;20272;-87
2023/02/03 10:41:24;;;;;;;1.50;1.40;;;;;;;;;;5076467;28;20278;-88
2023/02/03 10:43:52;;;;;;;3.33;2.22;;;;;;;;;;5075699;28;20227;-88
2023/02/03 10:46:23;;;;;;;2.00;1.88;;;;;;;;;;5074988;28;20211;-88
2023/02/03 10:48:54;;;;;;;1.83;1.73;;;;;;;;;;5071378;28;20276;-87
2023/02/03 10:51:24;;;;;;;1.80;1.70;;;;;;;;;;5055543;28;20212;-87
2023/02/03 10:53:52;;;;;;;1.65;1.55;;;;;;;;;;5055239;28;20245;-88
2023/02/03 10:56:22;;;;;;;2.00;1.90;;;;;;;;;;5055418;28;20197;-88
2023/02/03 10:58:53;;;;;;;1.58;1.48;;;;;;;;;;5054013;28;20613;-87
2023/02/03 11:01:22;;;;;;;1.60;1.50;;;;;;;;;;5054579;28;20555;-86
2023/02/03 11:04:03;;;;;;;1.60;1.50;;;;;;;;;;5053379;28;20248;-87
2023/02/03 11:06:32;;;;;;;1.80;1.70;;;;;;;;;;5054296;28;20190;-87
2023/02/03 11:09:00;;;;;;;1.83;1.67;;;;;;;;;;5055616;28;20709;-88
2023/02/03 11:11:31;;;;;;;1.65;1.55;;;;;;;;;;5055742;28;20201;-88
2023/02/03 11:14:15;;;;;;;1.80;1.67;;;;;;;;;;5054203;28;20224;-89
2023/02/03 11:16:42;;;;;;;1.98;1.80;;;;;;;;;;5056352;28;20178;-88
2023/02/03 11:19:17;;;;;;;2.70;1.90;;;;;;;;;;5059291;28;20245;-88
2023/02/03 11:21:46;;;;;;;1.73;1.60;;;;;;;;;;5059091;28;20192;-87
2023/02/03 11:24:19;;;;;;;2.10;2.00;;;;;;;;;;5058950;28;20275;-87
2023/02/03 11:26:50;;;;;;;2.53;1.95;;;;;;;;;;5059452;28;20228;-88
2023/02/03 11:29:22;;;;;;;2.35;2.15;;;;;;;;;;5057881;28;20220;-87
2023/02/03 11:31:51;;;;;;;2.60;2.35;;;;;;;;;;5059299;28;20214;-88
2023/02/03 11:34:25;;;;;;;3.00;2.78;;;;;;;;;;5059492;28;20373;-89
2023/02/03 11:36:52;;;;;;;2.28;2.08;;;;;;;;;;5060038;28;20185;-87
2023/02/03 11:39:34;;;;;;;2.60;2.40;;;;;;;;;;5059237;28;20206;-87
2023/02/03 11:42:02;;;;;;;3.55;3.25;;;;;;;;;;5057598;28;20186;-88
2023/02/03 11:44:32;;;;;;;4.18;3.78;;;;;;;;;;5058783;28;20221;-87
2023/02/03 11:47:03;;;;;;;4.30;3.83;;;;;;;;;;5057597;28;20205;-87
2023/02/03 11:50:14;;;;;;;3.10;2.80;;;;;;;;;;5059010;28;20233;-86
2023/02/03 11:53:25;;;;;;;3.30;2.78;;;;;;;;;;5057711;28;20241;-87
2023/02/03 11:56:16;;;;;;;2.78;2.35;;;;;;;;;;4995397;28;20298;-86
2023/02/03 11:59:26;;;;;;;2.65;2.45;;;;;;;;;;5057345;28;20190;-88
2023/02/03 12:02:25;;;;;;;2.65;2.45;;;;;;;;;;5057970;28;20205;-88
2023/02/03 12:05:26;;;;;;;2.53;2.22;;;;;;;;;;5057202;28;20213;-87
2023/02/03 12:08:06;;;;;;;3.35;2.20;;;;;;;;;;5055732;28;20204;-87
2023/02/03 12:14:46;;;;;;;2.42;2.10;;;;;;;;;;5044502;28;20220;-87
2023/02/03 12:31:34;;;;;;;1.95;1.85;;;;;;;;;;5093671;28;20257;-81
2023/02/03 12:34:13;;;;;;;1.83;1.73;;;;;;;;;;5075960;28;20605;-80
2023/02/03 12:36:44;;;;;;;3.47;2.42;;;;;;;;;;5075134;28;20296;-81
2023/02/03 12:39:18;;;;;;;3.15;2.55;;;;;;;;;;5074865;28;20232;-81
2023/02/03 12:41:50;;;;;;;2.00;1.77;;;;;;;;;;5074930;28;20211;-81
2023/02/03 12:44:22;;;;;;;3.28;2.30;;;;;;;;;;5074334;28;20268;-81
2023/02/03 12:46:56;;;;;;;2.00;1.80;;;;;;;;;;5054423;28;20740;-82
2023/02/03 12:49:34;;;;;;;2.20;2.08;;;;;;;;;;5054178;28;20233;-83
2023/02/03 12:52:06;;;;;;;2.33;2.13;;;;;;;;;;5055206;28;20647;-80
2023/02/03 12:54:44;;;;;;;2.10;2.00;;;;;;;;;;5066064;28;20197;-82
2023/02/03 12:57:25;;;;;;;2.70;2.35;;;;;;;;;;5073910;28;20205;-80
2023/02/03 13:00:09;;;;;;;3.17;2.88;;;;;;;;;;5073940;28;20571;-81
2023/02/03 13:02:49;;;;;;;4.60;3.08;;;;;;;;;;5074078;28;20251;-81
2023/02/03 13:05:23;;;;;;;3.35;3.05;;;;;;;;;;5073268;28;20323;-82
2023/02/03 13:07:57;;;;;;;3.38;2.20;;;;;;;;;;5073246;28;20212;-81
2023/02/03 13:10:31;;;;;;;2.08;1.73;;;;;;;;;;5073222;28;20205;-81
2023/02/03 13:12:59;;;;;;;2.75;1.67;;;;;;;;;;5074029;28;20224;-80
2023/02/03 13:15:30;;;;;;;2.65;1.95;;;;;;;;;;5072897;28;20207;-80
2023/02/03 13:18:04;;;;;;;2.60;2.20;;;;;;;;;;5081049;28;20836;-81
2023/02/03 13:20:34;;;;;;;1.85;1.52;;;;;;;;;;5066489;28;20204;-82
2023/02/03 13:23:09;;;;;;;4.88;1.20;;;;;;;;;;5075877;28;20256;-82
2023/02/03 13:25:59;;;;;;;1.67;1.30;;;;;;;;;;5053243;28;20221;-82
2023/02/03 13:28:50;;;;;;;2.95;1.33;;;;;;;;;;5053376;28;20198;-82
2023/02/03 13:31:34;;;;;;;1.20;0.93;;;;;;;;;;5054136;28;20208;-83
2023/02/03 13:34:29;;;;;;;2.97;1.75;;;;;;;;;;5052757;28;20582;-81
2023/02/03 13:37:12;;;;;;;4.63;2.40;;;;;;;;;;5052132;28;20198;-82
2023/02/03 13:39:52;;;;;;;5.32;2.25;;;;;;;;;;5051429;28;20209;-82
2023/02/03 13:42:24;;;;;;;4.70;2.17;;;;;;;;;;5054293;28;20321;-83
2023/02/03 13:44:55;;;;;;;8.93;3.25;;;;;;;;;;5058986;28;20235;-82
2023/02/03 13:47:26;;;;;;;11.25;4.32;;;;;;;;;;5073719;28;20233;-83
2023/02/03 13:50:00;;;;;;;7.85;2.95;;;;;;;;;;5074225;28;20227;-85
2023/02/03 13:52:35;;;;;;;7.70;2.92;;;;;;;;;;5074946;28;20290;-83
2023/02/03 13:55:02;;;;;;;10.07;2.78;;;;;;;;;;5073040;28;20656;-84
2023/02/03 13:57:35;;;;;;;9.30;4.00;;;;;;;;;;5077177;28;20287;-85
2023/02/03 14:00:08;;;;;;;12.23;5.28;;;;;;;;;;5076552;28;20250;-83
2023/02/03 14:02:52;;;;;;;7.75;3.30;;;;;;;;;;5073970;28;20221;-82
2023/02/03 14:05:49;;;;;;;7.63;3.10;;;;;;;;;;5073098;28;20228;-82
2023/02/03 14:08:47;;;;;;;10.93;3.95;;;;;;;;;;5070049;28;20204;-83
2023/02/03 14:11:44;;;;;;;12.43;3.40;;;;;;;;;;5073386;28;20205;-83
2023/02/03 14:15:02;;;;;;;9.27;2.75;;;;;;;;;;5072695;28;20275;-82
2023/02/03 14:18:32;;;;;;;9.98;3.00;;;;;;;;;;5060754;28;20209;-82
2023/02/03 14:21:22;;;;;;;8.93;3.65;;;;;;;;;;5076188;28;20642;-81
2023/02/03 14:24:02;;;;;;;8.52;3.67;;;;;;;;;;5072076;28;20288;-85
2023/02/03 14:26:40;;;;;;;11.65;4.30;;;;;;;;;;5088790;28;20185;-81
2023/02/03 14:29:09;;;;;;;10.50;5.25;;;;;;;;;;5079936;28;20204;-81
2023/02/03 14:31:58;;;;;;;9.45;3.60;;;;;;;;;;5072247;28;20218;-83
2023/02/03 14:34:32;;;;;;;8.05;2.90;;;;;;;;;;5072952;28;20280;-84
2023/02/03 14:37:20;;;;;;;9.00;3.13;;;;;;;;;;5071552;28;20193;-83
2023/02/03 14:40:25;;;;;;;15.63;3.63;;;;;;;;;;5071365;28;20662;-84
2023/02/03 14:43:28;;;;;;;8.18;3.08;;;;;;;;;;5071872;28;20221;-81
2023/02/03 14:46:28;;;;;;;8.80;3.10;;;;;;;;;;5070791;28;20260;-82
2023/02/03 14:49:21;;;;;;;10.70;3.33;;;;;;;;;;5049886;28;20205;-81
2023/02/03 14:52:17;;;;;;;10.88;2.78;;;;;;;;;;5072467;28;20197;-83
2023/02/03 14:55:15;;;;;;;7.80;4.03;;;;;;;;;;5068163;28;20197;-80
2023/02/03 14:57:47;;;;;;;9.68;3.70;;;;;;;;;;5070969;28;20205;-81
2023/02/03 15:00:33;;;;;;;4.50;2.63;;;;;;;;;;5069961;28;20201;-80
2023/02/03 15:03:29;;;;;;;10.40;3.10;;;;;;;;;;5070467;28;20225;-80
2023/02/03 15:05:59;;;;;;;5.80;2.55;;;;;;;;;;5071083;28;20225;-81
2023/02/03 15:08:44;;;;;;;6.00;2.47;;;;;;;;;;5070877;28;20232;-80
2023/02/03 15:11:44;;;;;;;5.93;2.67;;;;;;;;;;5071137;28;20208;-82
2023/02/03 15:14:19;;;;;;;13.15;4.65;;;;;;;;;;5036951;28;20207;-81
2023/02/03 15:16:51;;;;;;;10.38;2.95;;;;;;;;;;5071098;28;20200;-82
2023/02/03 15:19:22;;;;;;;8.05;3.67;;;;;;;;;;5070659;28;20272;-83
2023/02/03 15:21:50;;;;;;;8.93;2.92;;;;;;;;;;5071502;28;20203;-84
2023/02/03 15:24:22;;;;;;;9.60;3.20;;;;;;;;;;5071305;28;20300;-81
2023/02/03 15:26:53;;;;;;;6.82;2.38;;;;;;;;;;5071267;28;20225;-80
2023/02/03 15:29:29;;;;;;;11.43;4.45;;;;;;;;;;5071778;28;20213;-80
2023/02/03 15:32:05;;;;;;;6.38;2.80;;;;;;;;;;5073414;28;20216;-83
2023/02/03 15:34:38;;;;;;;10.18;2.78;;;;;;;;;;5072287;28;20690;-82
2023/02/03 15:37:10;;;;;;;7.28;3.17;;;;;;;;;;5072523;28;20205;-81
2023/02/03 15:39:46;;;;;;;10.15;3.60;;;;;;;;;;5072289;28;20189;-81
2023/02/03 15:42:21;;;;;;;12.10;2.97;;;;;;;;;;5072161;28;20231;-82
2023/02/03 15:44:54;;;;;;;11.07;3.08;;;;;;;;;;5072410;28;20212;-84
2023/02/03 15:47:31;;;;;;;8.50;2.80;;;;;;;;;;5071816;28;20707;-84
2023/02/03 15:50:19;;;;;;;7.40;2.97;;;;;;;;;;5070153;28;20215;-83
2023/02/03 15:52:47;;;;;;;7.00;2.80;;;;;;;;;;5071519;28;20670;-84
2023/02/03 15:55:20;;;;;;;12.70;3.38;;;;;;;;;;5071639;28;20291;-83
2023/02/03 15:57:51;;;;;;;10.60;2.95;;;;;;;;;;5071964;28;20197;-83
2023/02/03 16:00:32;;;;;;;6.80;2.53;;;;;;;;;;5070973;28;20228;-86
2023/02/03 16:03:00;;;;;;;9.27;2.70;;;;;;;;;;5071828;28;20221;-83
2023/02/03 16:05:31;;;;;;;13.63;2.72;;;;;;;;;;5074972;28;20228;-84
2023/02/03 16:08:13;;;;;;;5.97;3.88;;;;;;;;;;5074647;28;20205;-83
2023/02/03 16:10:41;;;;;;;6.82;3.67;;;;;;;;;;5074634;28;20283;-84
2023/02/03 16:13:20;;;;;;;6.68;3.05;;;;;;;;;;5074753;28;20741;-85